sensor_id;sensor_type;location;lat;lon;timestamp;temperature;humidity
68924;DHT22;55961;52.156;20.942;2023-02-28T00:01:20;-3.40;68.70
68924;DHT22;55961;52.156;20.942;2023-02-28T00:03:46;-3.50;68.70
68924;DHT22;55961;52.156;20.942;2023-02-28T00:06:12;-3.50;68.70
68924;DHT22;55961;52.156;20.942;2023-02-28T00:08:39;-3.60;69.50
68924;DHT22;55961;52.156;20.942;2023-02-28T00:11:10;-3.60;69.10
68924;DHT22;55961;52.156;20.942;2023-02-28T00:13:39;-3.60;69.00
68924;DHT22;55961;52.156;20.942;2023-02-28T00:16:08;-3.60;69.20
68924;DHT22;55961;52.156;20.942;2023-02-28T00:18:35;-3.70;69.90
68924;DHT22;55961;52.156;20.942;2023-02-28T00:21:01;-3.70;69.40
68924;DHT22;55961;52.156;20.942;2023-02-28T00:23:27;-3.70;69.20
68924;DHT22;55961;52.156;20.942;2023-02-28T00:25:54;-3.70;69.00
68924;DHT22;55961;52.156;20.942;2023-02-28T00:28:20;-3.80;68.90
68924;DHT22;55961;52.156;20.942;2023-02-28T00:30:46;-3.80;69.00
68924;DHT22;55961;52.156;20.942;2023-02-28T00:33:13;-3.80;69.20
68924;DHT22;55961;52.156;20.942;2023-02-28T00:35:39;-3.80;69.80
68924;DHT22;55961;52.156;20.942;2023-02-28T00:38:05;-3.90;69.80
68924;DHT22;55961;52.156;20.942;2023-02-28T00:40:31;-3.90;70.00
68924;DHT22;55961;52.156;20.942;2023-02-28T00:42:57;-3.90;70.40
68924;DHT22;55961;52.156;20.942;2023-02-28T00:45:23;-3.90;70.50
68924;DHT22;55961;52.156;20.942;2023-02-28T00:47:49;-3.90;70.90
68924;DHT22;55961;52.156;20.942;2023-02-28T00:50:19;-4.00;70.80
68924;DHT22;55961;52.156;20.942;2023-02-28T00:52:46;-4.00;70.80
68924;DHT22;55961;52.156;20.942;2023-02-28T00:55:12;-4.00;70.70
68924;DHT22;55961;52.156;20.942;2023-02-28T00:57:38;-4.00;70.60
68924;DHT22;55961;52.156;20.942;2023-02-28T01:00:05;-4.10;70.70
68924;DHT22;55961;52.156;20.942;2023-02-28T01:02:32;-4.10;71.30
68924;DHT22;55961;52.156;20.942;2023-02-28T01:04:57;-4.10;71.20
68924;DHT22;55961;52.156;20.942;2023-02-28T01:07:23;-4.10;71.00
68924;DHT22;55961;52.156;20.942;2023-02-28T01:09:49;-4.20;71.00
68924;DHT22;55961;52.156;20.942;2023-02-28T01:12:15;-4.20;71.10
68924;DHT22;55961;52.156;20.942;2023-02-28T01:14:41;-4.20;71.20
68924;DHT22;55961;52.156;20.942;2023-02-28T01:17:08;-4.20;72.20
68924;DHT22;55961;52.156;20.942;2023-02-28T01:19:34;-4.30;72.30
68924;DHT22;55961;52.156;20.942;2023-02-28T01:22:05;-4.30;72.20
68924;DHT22;55961;52.156;20.942;2023-02-28T01:24:32;-4.30;72.00
68924;DHT22;55961;52.156;20.942;2023-02-28T01:26:58;-4.30;71.90
68924;DHT22;55961;52.156;20.942;2023-02-28T01:29:24;-4.40;71.90
68924;DHT22;55961;52.156;20.942;2023-02-28T01:31:50;-4.40;71.90
68924;DHT22;55961;52.156;20.942;2023-02-28T01:34:17;-4.40;71.80
68924;DHT22;55961;52.156;20.942;2023-02-28T01:36:45;-4.40;71.80
68924;DHT22;55961;52.156;20.942;2023-02-28T01:39:11;-4.40;72.10
68924;DHT22;55961;52.156;20.942;2023-02-28T01:41:38;-4.50;72.60
68924;DHT22;55961;52.156;20.942;2023-02-28T01:46:51;-4.50;72.40
68924;DHT22;55961;52.156;20.942;2023-02-28T01:49:17;-4.50;72.30
68924;DHT22;55961;52.156;20.942;2023-02-28T01:51:48;-4.50;72.20
68924;DHT22;55961;52.156;20.942;2023-02-28T01:54:24;-4.60;72.40
68924;DHT22;55961;52.156;20.942;2023-02-28T01:56:57;-4.60;72.50
68924;DHT22;55961;52.156;20.942;2023-02-28T01:59:37;-4.60;72.50
68924;DHT22;55961;52.156;20.942;2023-02-28T02:02:04;-4.60;72.70
68924;DHT22;55961;52.156;20.942;2023-02-28T02:04:40;-4.70;72.70
68924;DHT22;55961;52.156;20.942;2023-02-28T02:07:07;-4.70;72.50
68924;DHT22;55961;52.156;20.942;2023-02-28T02:09:33;-4.70;72.60
68924;DHT22;55961;52.156;20.942;2023-02-28T02:12:05;-4.70;72.70
68924;DHT22;55961;52.156;20.942;2023-02-28T02:17:32;-4.70;72.80
68924;DHT22;55961;52.156;20.942;2023-02-28T02:25:45;-4.80;72.80
68924;DHT22;55961;52.156;20.942;2023-02-28T02:31:36;-4.80;73.20
68924;DHT22;55961;52.156;20.942;2023-02-28T02:42:16;-5.00;73.80
68924;DHT22;55961;52.156;20.942;2023-02-28T02:45:07;-5.00;73.80
68924;DHT22;55961;52.156;20.942;2023-02-28T02:47:35;-5.00;74.20
68924;DHT22;55961;52.156;20.942;2023-02-28T02:50:05;-5.00;74.10
68924;DHT22;55961;52.156;20.942;2023-02-28T02:52:39;-5.00;74.50
68924;DHT22;55961;52.156;20.942;2023-02-28T02:55:08;-5.10;74.90
68924;DHT22;55961;52.156;20.942;2023-02-28T02:57:43;-5.10;74.60
68924;DHT22;55961;52.156;20.942;2023-02-28T03:00:12;-5.00;74.60
68924;DHT22;55961;52.156;20.942;2023-02-28T03:02:40;-5.10;74.60
68924;DHT22;55961;52.156;20.942;2023-02-28T03:05:15;-5.10;74.50
68924;DHT22;55961;52.156;20.942;2023-02-28T03:07:43;-5.10;74.80
68924;DHT22;55961;52.156;20.942;2023-02-28T03:10:44;-5.10;74.90
68924;DHT22;55961;52.156;20.942;2023-02-28T03:13:38;-5.10;74.80
68924;DHT22;55961;52.156;20.942;2023-02-28T03:24:38;-5.20;74.80
68924;DHT22;55961;52.156;20.942;2023-02-28T03:27:29;-5.20;74.80
68924;DHT22;55961;52.156;20.942;2023-02-28T03:30:03;-5.20;74.90
68924;DHT22;55961;52.156;20.942;2023-02-28T03:32:36;-5.20;75.10
68924;DHT22;55961;52.156;20.942;2023-02-28T03:35:12;-5.20;75.10
68924;DHT22;55961;52.156;20.942;2023-02-28T03:37:41;-5.20;75.40
68924;DHT22;55961;52.156;20.942;2023-02-28T03:40:14;-5.30;75.30
68924;DHT22;55961;52.156;20.942;2023-02-28T03:42:44;-5.30;75.50
68924;DHT22;55961;52.156;20.942;2023-02-28T03:45:18;-5.30;75.50
68924;DHT22;55961;52.156;20.942;2023-02-28T03:50:29;-5.30;75.40
68924;DHT22;55961;52.156;20.942;2023-02-28T03:53:14;-5.30;75.40
68924;DHT22;55961;52.156;20.942;2023-02-28T03:56:18;-5.30;75.30
68924;DHT22;55961;52.156;20.942;2023-02-28T04:01:39;-5.30;75.10
68924;DHT22;55961;52.156;20.942;2023-02-28T04:04:08;-5.30;75.10
68924;DHT22;55961;52.156;20.942;2023-02-28T04:06:34;-5.40;75.10
68924;DHT22;55961;52.156;20.942;2023-02-28T04:09:02;-5.30;75.20
68924;DHT22;55961;52.156;20.942;2023-02-28T04:11:46;-5.40;75.30
68924;DHT22;55961;52.156;20.942;2023-02-28T04:14:14;-5.40;75.30
68924;DHT22;55961;52.156;20.942;2023-02-28T04:16:41;-5.40;75.40
68924;DHT22;55961;52.156;20.942;2023-02-28T04:19:10;-5.40;75.90
68924;DHT22;55961;52.156;20.942;2023-02-28T04:21:43;-5.40;75.80
68924;DHT22;55961;52.156;20.942;2023-02-28T04:24:21;-5.40;75.70
68924;DHT22;55961;52.156;20.942;2023-02-28T04:26:50;-5.40;75.80
68924;DHT22;55961;52.156;20.942;2023-02-28T04:29:25;-5.40;75.80
68924;DHT22;55961;52.156;20.942;2023-02-28T04:31:52;-5.40;75.60
68924;DHT22;55961;52.156;20.942;2023-02-28T04:34:20;-5.40;75.50
68924;DHT22;55961;52.156;20.942;2023-02-28T04:36:47;-5.40;75.40
68924;DHT22;55961;52.156;20.942;2023-02-28T04:39:16;-5.40;75.40
68924;DHT22;55961;52.156;20.942;2023-02-28T04:41:44;-5.40;75.40
68924;DHT22;55961;52.156;20.942;2023-02-28T04:44:11;-5.40;75.60
68924;DHT22;55961;52.156;20.942;2023-02-28T04:46:37;-5.50;75.80
68924;DHT22;55961;52.156;20.942;2023-02-28T04:49:03;-5.50;75.80
68924;DHT22;55961;52.156;20.942;2023-02-28T04:51:28;-5.50;76.20
68924;DHT22;55961;52.156;20.942;2023-02-28T04:53:55;-5.50;75.80
68924;DHT22;55961;52.156;20.942;2023-02-28T04:56:21;-5.50;75.90
68924;DHT22;55961;52.156;20.942;2023-02-28T04:58:47;-5.50;75.80
68924;DHT22;55961;52.156;20.942;2023-02-28T05:01:25;-5.50;75.80
68924;DHT22;55961;52.156;20.942;2023-02-28T05:03:53;-5.50;75.90
68924;DHT22;55961;52.156;20.942;2023-02-28T05:06:20;-5.50;76.10
68924;DHT22;55961;52.156;20.942;2023-02-28T05:08:47;-5.50;76.20
68924;DHT22;55961;52.156;20.942;2023-02-28T05:11:33;-5.50;76.10
68924;DHT22;55961;52.156;20.942;2023-02-28T05:14:09;-5.50;75.90
68924;DHT22;55961;52.156;20.942;2023-02-28T05:16:35;-5.50;75.90
68924;DHT22;55961;52.156;20.942;2023-02-28T05:19:02;-5.50;75.90
68924;DHT22;55961;52.156;20.942;2023-02-28T05:21:30;-5.60;76.00
68924;DHT22;55961;52.156;20.942;2023-02-28T05:24:11;-5.60;76.00
68924;DHT22;55961;52.156;20.942;2023-02-28T05:26:39;-5.60;76.20
68924;DHT22;55961;52.156;20.942;2023-02-28T05:29:06;-5.60;76.40
68924;DHT22;55961;52.156;20.942;2023-02-28T05:31:33;-5.60;76.50
68924;DHT22;55961;52.156;20.942;2023-02-28T05:33:59;-5.60;76.80
68924;DHT22;55961;52.156;20.942;2023-02-28T05:36:25;-5.60;76.80
68924;DHT22;55961;52.156;20.942;2023-02-28T05:38:51;-5.60;77.00
68924;DHT22;55961;52.156;20.942;2023-02-28T05:41:18;-5.60;77.20
68924;DHT22;55961;52.156;20.942;2023-02-28T05:43:46;-5.60;77.30
68924;DHT22;55961;52.156;20.942;2023-02-28T05:46:12;-5.60;77.30
68924;DHT22;55961;52.156;20.942;2023-02-28T05:48:40;-5.60;77.30
68924;DHT22;55961;52.156;20.942;2023-02-28T05:51:06;-5.60;77.30
68924;DHT22;55961;52.156;20.942;2023-02-28T05:53:33;-5.60;77.50
68924;DHT22;55961;52.156;20.942;2023-02-28T05:56:00;-5.50;78.40
68924;DHT22;55961;52.156;20.942;2023-02-28T05:58:26;-5.50;78.40
68924;DHT22;55961;52.156;20.942;2023-02-28T06:00:59;-5.50;78.60
68924;DHT22;55961;52.156;20.942;2023-02-28T06:03:26;-5.50;79.10
68924;DHT22;55961;52.156;20.942;2023-02-28T06:05:52;-5.50;78.90
68924;DHT22;55961;52.156;20.942;2023-02-28T06:08:18;-5.40;78.60
68924;DHT22;55961;52.156;20.942;2023-02-28T06:10:44;-5.40;78.80
68924;DHT22;55961;52.156;20.942;2023-02-28T06:13:10;-5.40;78.80
68924;DHT22;55961;52.156;20.942;2023-02-28T06:15:38;-5.30;78.70
68924;DHT22;55961;52.156;20.942;2023-02-28T06:18:04;-5.30;78.70
68924;DHT22;55961;52.156;20.942;2023-02-28T06:20:30;-5.30;79.10
68924;DHT22;55961;52.156;20.942;2023-02-28T06:22:57;-5.20;79.40
68924;DHT22;55961;52.156;20.942;2023-02-28T06:25:27;-5.10;79.90
68924;DHT22;55961;52.156;20.942;2023-02-28T06:27:54;-5.00;80.50
68924;DHT22;55961;52.156;20.942;2023-02-28T06:30:20;-4.80;81.10
68924;DHT22;55961;52.156;20.942;2023-02-28T06:32:50;-4.70;81.70
68924;DHT22;55961;52.156;20.942;2023-02-28T06:35:16;-4.50;82.20
68924;DHT22;55961;52.156;20.942;2023-02-28T06:37:42;-4.30;82.70
68924;DHT22;55961;52.156;20.942;2023-02-28T06:40:10;-4.10;82.80
68924;DHT22;55961;52.156;20.942;2023-02-28T06:42:36;-3.90;82.70
68924;DHT22;55961;52.156;20.942;2023-02-28T06:45:02;-3.70;82.30
68924;DHT22;55961;52.156;20.942;2023-02-28T06:47:35;-3.50;82.00
68924;DHT22;55961;52.156;20.942;2023-02-28T06:50:02;-3.30;81.70
68924;DHT22;55961;52.156;20.942;2023-02-28T06:52:28;-3.00;81.40
68924;DHT22;55961;52.156;20.942;2023-02-28T06:54:54;-2.80;80.40
68924;DHT22;55961;52.156;20.942;2023-02-28T06:57:33;-2.60;78.30
68924;DHT22;55961;52.156;20.942;2023-02-28T07:00:00;-2.30;74.80
68924;DHT22;55961;52.156;20.942;2023-02-28T07:02:27;-2.10;72.90
68924;DHT22;55961;52.156;20.942;2023-02-28T07:04:53;-1.90;71.30
68924;DHT22;55961;52.156;20.942;2023-02-28T07:07:19;-1.70;70.60
68924;DHT22;55961;52.156;20.942;2023-02-28T07:09:45;-1.60;70.40
68924;DHT22;55961;52.156;20.942;2023-02-28T07:12:11;-1.40;68.40
68924;DHT22;55961;52.156;20.942;2023-02-28T07:14:37;-1.20;67.40
68924;DHT22;55961;52.156;20.942;2023-02-28T07:17:03;-1.00;67.10
68924;DHT22;55961;52.156;20.942;2023-02-28T07:19:29;-0.80;65.90
68924;DHT22;55961;52.156;20.942;2023-02-28T07:21:55;-0.70;65.60
68924;DHT22;55961;52.156;20.942;2023-02-28T07:24:21;-0.50;64.20
68924;DHT22;55961;52.156;20.942;2023-02-28T07:26:49;-0.30;63.40
68924;DHT22;55961;52.156;20.942;2023-02-28T07:29:15;-0.20;62.70
68924;DHT22;55961;52.156;20.942;2023-02-28T07:31:41;-0.10;62.20
68924;DHT22;55961;52.156;20.942;2023-02-28T07:34:07;0.10;62.10
68924;DHT22;55961;52.156;20.942;2023-02-28T07:36:33;0.20;61.00
68924;DHT22;55961;52.156;20.942;2023-02-28T07:38:59;0.30;60.00
68924;DHT22;55961;52.156;20.942;2023-02-28T07:41:25;0.50;59.40
68924;DHT22;55961;52.156;20.942;2023-02-28T07:43:54;0.60;58.60
68924;DHT22;55961;52.156;20.942;2023-02-28T07:46:21;0.80;57.50
68924;DHT22;55961;52.156;20.942;2023-02-28T07:48:47;0.90;57.20
68924;DHT22;55961;52.156;20.942;2023-02-28T07:51:13;0.90;56.60
68924;DHT22;55961;52.156;20.942;2023-02-28T07:53:39;1.00;56.30
68924;DHT22;55961;52.156;20.942;2023-02-28T07:56:05;1.10;56.20
68924;DHT22;55961;52.156;20.942;2023-02-28T07:58:31;1.20;55.10
68924;DHT22;55961;52.156;20.942;2023-02-28T08:01:05;1.20;54.30
68924;DHT22;55961;52.156;20.942;2023-02-28T08:03:31;1.40;54.40
68924;DHT22;55961;52.156;20.942;2023-02-28T08:05:57;1.50;53.60
68924;DHT22;55961;52.156;20.942;2023-02-28T08:08:23;1.50;53.40
68924;DHT22;55961;52.156;20.942;2023-02-28T08:10:49;1.60;53.60
68924;DHT22;55961;52.156;20.942;2023-02-28T08:13:15;1.60;53.30
68924;DHT22;55961;52.156;20.942;2023-02-28T08:15:42;1.60;53.50
68924;DHT22;55961;52.156;20.942;2023-02-28T08:18:08;1.60;53.70
68924;DHT22;55961;52.156;20.942;2023-02-28T08:20:34;1.70;52.70
68924;DHT22;55961;52.156;20.942;2023-02-28T08:23:00;1.80;53.30
68924;DHT22;55961;52.156;20.942;2023-02-28T08:25:26;1.80;52.60
68924;DHT22;55961;52.156;20.942;2023-02-28T08:27:52;1.90;52.10
68924;DHT22;55961;52.156;20.942;2023-02-28T08:30:19;2.00;51.90
68924;DHT22;55961;52.156;20.942;2023-02-28T08:32:44;2.20;51.60
68924;DHT22;55961;52.156;20.942;2023-02-28T08:35:10;2.20;51.50
68924;DHT22;55961;52.156;20.942;2023-02-28T08:37:36;2.40;50.50
68924;DHT22;55961;52.156;20.942;2023-02-28T08:40:03;2.50;50.40
68924;DHT22;55961;52.156;20.942;2023-02-28T08:42:29;2.50;49.90
68924;DHT22;55961;52.156;20.942;2023-02-28T08:44:55;2.50;49.10
68924;DHT22;55961;52.156;20.942;2023-02-28T08:47:22;2.40;49.30
68924;DHT22;55961;52.156;20.942;2023-02-28T08:49:48;2.40;49.30
68924;DHT22;55961;52.156;20.942;2023-02-28T08:52:13;2.40;49.70
68924;DHT22;55961;52.156;20.942;2023-02-28T08:54:39;2.50;50.00
68924;DHT22;55961;52.156;20.942;2023-02-28T08:57:05;2.50;49.50
68924;DHT22;55961;52.156;20.942;2023-02-28T08:59:32;2.60;49.30
68924;DHT22;55961;52.156;20.942;2023-02-28T09:01:57;2.60;48.30
68924;DHT22;55961;52.156;20.942;2023-02-28T09:04:24;2.70;48.60
68924;DHT22;55961;52.156;20.942;2023-02-28T09:06:50;2.80;48.60
68924;DHT22;55961;52.156;20.942;2023-02-28T09:09:16;2.90;47.90
68924;DHT22;55961;52.156;20.942;2023-02-28T09:11:41;2.90;48.30
68924;DHT22;55961;52.156;20.942;2023-02-28T09:14:08;3.00;47.80
68924;DHT22;55961;52.156;20.942;2023-02-28T09:16:34;3.00;47.40
68924;DHT22;55961;52.156;20.942;2023-02-28T09:19:01;3.00;47.00
68924;DHT22;55961;52.156;20.942;2023-02-28T09:21:27;3.00;47.60
68924;DHT22;55961;52.156;20.942;2023-02-28T09:23:53;3.10;47.70
68924;DHT22;55961;52.156;20.942;2023-02-28T09:26:22;3.10;47.70
68924;DHT22;55961;52.156;20.942;2023-02-28T09:28:49;3.10;47.00
68924;DHT22;55961;52.156;20.942;2023-02-28T09:31:21;3.10;46.10
68924;DHT22;55961;52.156;20.942;2023-02-28T09:33:48;3.20;47.00
68924;DHT22;55961;52.156;20.942;2023-02-28T09:36:14;3.20;46.90
68924;DHT22;55961;52.156;20.942;2023-02-28T09:38:40;3.40;47.50
68924;DHT22;55961;52.156;20.942;2023-02-28T09:41:19;3.50;46.70
68924;DHT22;55961;52.156;20.942;2023-02-28T09:44:00;3.70;47.10
68924;DHT22;55961;52.156;20.942;2023-02-28T09:49:02;4.10;46.10
68924;DHT22;55961;52.156;20.942;2023-02-28T09:52:05;4.40;45.40
68924;DHT22;55961;52.156;20.942;2023-02-28T09:54:35;4.60;44.60
68924;DHT22;55961;52.156;20.942;2023-02-28T09:59:46;4.70;43.10
68924;DHT22;55961;52.156;20.942;2023-02-28T10:05:12;4.90;43.80
68924;DHT22;55961;52.156;20.942;2023-02-28T10:08:01;5.10;43.80
68924;DHT22;55961;52.156;20.942;2023-02-28T10:10:41;5.30;43.00
68924;DHT22;55961;52.156;20.942;2023-02-28T10:15:54;5.40;42.90
68924;DHT22;55961;52.156;20.942;2023-02-28T10:18:27;5.50;42.90
68924;DHT22;55961;52.156;20.942;2023-02-28T10:20:56;5.70;42.50
68924;DHT22;55961;52.156;20.942;2023-02-28T10:23:30;5.80;42.40
68924;DHT22;55961;52.156;20.942;2023-02-28T10:26:01;5.90;41.70
68924;DHT22;55961;52.156;20.942;2023-02-28T10:28:29;6.10;41.50
68924;DHT22;55961;52.156;20.942;2023-02-28T10:30:57;6.30;41.90
68924;DHT22;55961;52.156;20.942;2023-02-28T10:33:28;6.50;41.10
68924;DHT22;55961;52.156;20.942;2023-02-28T10:35:55;6.70;41.60
68924;DHT22;55961;52.156;20.942;2023-02-28T10:38:32;6.90;41.50
68924;DHT22;55961;52.156;20.942;2023-02-28T10:41:07;7.00;40.90
68924;DHT22;55961;52.156;20.942;2023-02-28T10:43:34;7.10;40.00
68924;DHT22;55961;52.156;20.942;2023-02-28T10:48:44;7.20;40.40
68924;DHT22;55961;52.156;20.942;2023-02-28T10:51:16;7.40;40.20
68924;DHT22;55961;52.156;20.942;2023-02-28T11:01:16;8.10;39.20
68924;DHT22;55961;52.156;20.942;2023-02-28T11:03:42;8.30;38.70
68924;DHT22;55961;52.156;20.942;2023-02-28T11:06:35;8.50;38.40
68924;DHT22;55961;52.156;20.942;2023-02-28T11:09:21;8.70;38.30
68924;DHT22;55961;52.156;20.942;2023-02-28T11:11:49;8.90;37.40
68924;DHT22;55961;52.156;20.942;2023-02-28T11:14:30;8.90;37.20
68924;DHT22;55961;52.156;20.942;2023-02-28T11:17:03;9.00;37.20
68924;DHT22;55961;52.156;20.942;2023-02-28T11:19:41;9.00;37.50
68924;DHT22;55961;52.156;20.942;2023-02-28T11:22:10;9.10;36.60
68924;DHT22;55961;52.156;20.942;2023-02-28T11:24:42;9.10;36.60
68924;DHT22;55961;52.156;20.942;2023-02-28T11:27:26;9.10;36.80
68924;DHT22;55961;52.156;20.942;2023-02-28T11:30:00;9.10;37.10
68924;DHT22;55961;52.156;20.942;2023-02-28T11:32:30;9.00;37.00
68924;DHT22;55961;52.156;20.942;2023-02-28T11:35:17;9.10;36.80
68924;DHT22;55961;52.156;20.942;2023-02-28T11:37:48;9.10;36.90
68924;DHT22;55961;52.156;20.942;2023-02-28T11:40:16;9.20;36.60
68924;DHT22;55961;52.156;20.942;2023-02-28T11:48:17;8.80;36.60
68924;DHT22;55961;52.156;20.942;2023-02-28T11:56:36;8.30;36.90
68924;DHT22;55961;52.156;20.942;2023-02-28T12:07:42;8.30;36.90
68924;DHT22;55961;52.156;20.942;2023-02-28T12:10:20;8.40;37.80
68924;DHT22;55961;52.156;20.942;2023-02-28T12:28:53;8.90;37.40
68924;DHT22;55961;52.156;20.942;2023-02-28T12:31:32;9.00;36.80
68924;DHT22;55961;52.156;20.942;2023-02-28T12:34:04;9.00;36.40
68924;DHT22;55961;52.156;20.942;2023-02-28T12:36:34;8.80;37.10
68924;DHT22;55961;52.156;20.942;2023-02-28T12:39:07;8.80;37.00
68924;DHT22;55961;52.156;20.942;2023-02-28T12:41:59;8.80;36.90
68924;DHT22;55961;52.156;20.942;2023-02-28T12:44:44;8.80;36.60
68924;DHT22;55961;52.156;20.942;2023-02-28T12:47:16;8.80;36.50
68924;DHT22;55961;52.156;20.942;2023-02-28T12:50:09;8.80;37.00
68924;DHT22;55961;52.156;20.942;2023-02-28T12:52:58;8.60;37.00
68924;DHT22;55961;52.156;20.942;2023-02-28T12:58:50;8.70;37.20
68924;DHT22;55961;52.156;20.942;2023-02-28T13:07:08;8.70;37.10
68924;DHT22;55961;52.156;20.942;2023-02-28T13:09:38;8.60;37.10
68924;DHT22;55961;52.156;20.942;2023-02-28T13:12:16;8.60;36.50
68924;DHT22;55961;52.156;20.942;2023-02-28T13:14:43;8.60;36.30
68924;DHT22;55961;52.156;20.942;2023-02-28T13:19:46;8.50;37.40
68924;DHT22;55961;52.156;20.942;2023-02-28T13:22:38;8.60;37.30
68924;DHT22;55961;52.156;20.942;2023-02-28T13:28:01;8.70;37.00
68924;DHT22;55961;52.156;20.942;2023-02-28T13:38:49;8.70;37.60
68924;DHT22;55961;52.156;20.942;2023-02-28T13:46:25;8.80;37.10
68924;DHT22;55961;52.156;20.942;2023-02-28T13:48:51;8.80;36.90
68924;DHT22;55961;52.156;20.942;2023-02-28T13:57:15;8.80;37.20
68924;DHT22;55961;52.156;20.942;2023-02-28T13:59:50;8.70;37.40
68924;DHT22;55961;52.156;20.942;2023-02-28T14:02:36;8.60;37.90
68924;DHT22;55961;52.156;20.942;2023-02-28T14:05:18;8.60;37.40
68924;DHT22;55961;52.156;20.942;2023-02-28T14:07:50;8.40;37.20
68924;DHT22;55961;52.156;20.942;2023-02-28T14:10:30;8.20;38.20
68924;DHT22;55961;52.156;20.942;2023-02-28T14:13:01;8.10;38.30
68924;DHT22;55961;52.156;20.942;2023-02-28T14:18:06;8.00;38.50
68924;DHT22;55961;52.156;20.942;2023-02-28T14:20:40;8.00;39.30
68924;DHT22;55961;52.156;20.942;2023-02-28T14:28:36;7.80;38.50
68924;DHT22;55961;52.156;20.942;2023-02-28T14:31:12;7.80;38.70
68924;DHT22;55961;52.156;20.942;2023-02-28T14:36:45;7.50;38.60
68924;DHT22;55961;52.156;20.942;2023-02-28T14:39:16;7.40;39.20
68924;DHT22;55961;52.156;20.942;2023-02-28T14:41:45;7.40;39.20
68924;DHT22;55961;52.156;20.942;2023-02-28T14:44:23;7.30;39.50
68924;DHT22;55961;52.156;20.942;2023-02-28T14:46:52;7.30;39.80
68924;DHT22;55961;52.156;20.942;2023-02-28T14:49:31;7.20;39.80
68924;DHT22;55961;52.156;20.942;2023-02-28T14:52:14;7.10;40.10
68924;DHT22;55961;52.156;20.942;2023-02-28T14:54:41;7.00;40.10
68924;DHT22;55961;52.156;20.942;2023-02-28T14:57:30;6.90;40.50
68924;DHT22;55961;52.156;20.942;2023-02-28T15:02:38;6.70;40.80
68924;DHT22;55961;52.156;20.942;2023-02-28T15:07:45;6.50;41.50
68924;DHT22;55961;52.156;20.942;2023-02-28T15:10:21;6.40;41.50
68924;DHT22;55961;52.156;20.942;2023-02-28T15:12:52;6.30;41.50
68924;DHT22;55961;52.156;20.942;2023-02-28T15:15:20;6.20;42.10
68924;DHT22;55961;52.156;20.942;2023-02-28T15:17:49;6.10;42.30
68924;DHT22;55961;52.156;20.942;2023-02-28T15:20:16;6.00;42.20
68924;DHT22;55961;52.156;20.942;2023-02-28T15:22:45;5.90;42.40
68924;DHT22;55961;52.156;20.942;2023-02-28T15:25:15;5.90;43.10
68924;DHT22;55961;52.156;20.942;2023-02-28T15:27:47;5.80;42.80
68924;DHT22;55961;52.156;20.942;2023-02-28T15:30:20;5.70;42.90
68924;DHT22;55961;52.156;20.942;2023-02-28T15:33:07;5.60;43.40
68924;DHT22;55961;52.156;20.942;2023-02-28T15:35:43;5.50;43.70
68924;DHT22;55961;52.156;20.942;2023-02-28T15:38:26;5.40;43.70
68924;DHT22;55961;52.156;20.942;2023-02-28T15:40:54;5.30;43.90
68924;DHT22;55961;52.156;20.942;2023-02-28T15:43:32;5.20;44.00
68924;DHT22;55961;52.156;20.942;2023-02-28T15:48:36;5.00;44.30
68924;DHT22;55961;52.156;20.942;2023-02-28T15:51:08;5.00;44.40
68924;DHT22;55961;52.156;20.942;2023-02-28T15:54:20;4.80;44.70
68924;DHT22;55961;52.156;20.942;2023-02-28T15:57:06;4.80;45.00
68924;DHT22;55961;52.156;20.942;2023-02-28T15:59:23;4.70;45.10
68924;DHT22;55961;52.156;20.942;2023-02-28T16:07:33;4.40;45.60
68924;DHT22;55961;52.156;20.942;2023-02-28T16:10:00;4.30;45.90
68924;DHT22;55961;52.156;20.942;2023-02-28T16:12:30;4.20;46.10
68924;DHT22;55961;52.156;20.942;2023-02-28T16:14:59;4.10;46.30
68924;DHT22;55961;52.156;20.942;2023-02-28T16:17:29;4.00;46.60
68924;DHT22;55961;52.156;20.942;2023-02-28T16:19:59;3.90;47.00
68924;DHT22;55961;52.156;20.942;2023-02-28T16:22:25;3.80;47.20
68924;DHT22;55961;52.156;20.942;2023-02-28T16:24:51;3.80;47.40
68924;DHT22;55961;52.156;20.942;2023-02-28T16:27:32;3.70;47.50
68924;DHT22;55961;52.156;20.942;2023-02-28T16:30:02;3.60;47.90
68924;DHT22;55961;52.156;20.942;2023-02-28T16:32:29;3.50;48.30
68924;DHT22;55961;52.156;20.942;2023-02-28T16:34:56;3.40;48.50
68924;DHT22;55961;52.156;20.942;2023-02-28T16:37:22;3.30;48.80
68924;DHT22;55961;52.156;20.942;2023-02-28T16:39:48;3.30;48.80
68924;DHT22;55961;52.156;20.942;2023-02-28T16:42:25;3.20;49.10
68924;DHT22;55961;52.156;20.942;2023-02-28T16:44:52;3.10;49.50
68924;DHT22;55961;52.156;20.942;2023-02-28T16:47:19;3.00;49.70
68924;DHT22;55961;52.156;20.942;2023-02-28T16:49:46;3.00;50.20
68924;DHT22;55961;52.156;20.942;2023-02-28T16:52:13;2.90;50.70
68924;DHT22;55961;52.156;20.942;2023-02-28T16:54:40;2.70;51.10
68924;DHT22;55961;52.156;20.942;2023-02-28T16:57:22;2.70;51.20
68924;DHT22;55961;52.156;20.942;2023-02-28T16:59:49;2.60;51.30
68924;DHT22;55961;52.156;20.942;2023-02-28T17:02:30;2.50;51.60
68924;DHT22;55961;52.156;20.942;2023-02-28T17:04:56;2.40;52.30
68924;DHT22;55961;52.156;20.942;2023-02-28T17:07:22;2.40;52.80
68924;DHT22;55961;52.156;20.942;2023-02-28T17:09:48;2.30;53.10
68924;DHT22;55961;52.156;20.942;2023-02-28T17:12:14;2.30;53.40
68924;DHT22;55961;52.156;20.942;2023-02-28T17:14:40;2.20;53.60
68924;DHT22;55961;52.156;20.942;2023-02-28T17:17:09;2.10;53.70
68924;DHT22;55961;52.156;20.942;2023-02-28T17:19:35;2.10;53.90
68924;DHT22;55961;52.156;20.942;2023-02-28T17:22:02;2.00;54.30
68924;DHT22;55961;52.156;20.942;2023-02-28T17:24:28;2.00;54.40
68924;DHT22;55961;52.156;20.942;2023-02-28T17:26:54;1.90;54.40
68924;DHT22;55961;52.156;20.942;2023-02-28T17:29:21;1.80;55.10
68924;DHT22;55961;52.156;20.942;2023-02-28T17:31:47;1.80;55.20
68924;DHT22;55961;52.156;20.942;2023-02-28T17:34:13;1.70;55.20
68924;DHT22;55961;52.156;20.942;2023-02-28T17:36:45;1.60;55.20
68924;DHT22;55961;52.156;20.942;2023-02-28T17:39:13;1.60;57.20
68924;DHT22;55961;52.156;20.942;2023-02-28T17:41:54;1.50;57.20
68924;DHT22;55961;52.156;20.942;2023-02-28T17:44:21;1.40;56.70
68924;DHT22;55961;52.156;20.942;2023-02-28T17:46:48;1.40;56.80
68924;DHT22;55961;52.156;20.942;2023-02-28T17:49:16;1.30;56.60
68924;DHT22;55961;52.156;20.942;2023-02-28T17:51:42;1.20;56.90
68924;DHT22;55961;52.156;20.942;2023-02-28T17:54:08;1.20;57.10
68924;DHT22;55961;52.156;20.942;2023-02-28T17:56:34;1.10;57.40
68924;DHT22;55961;52.156;20.942;2023-02-28T17:59:00;1.00;57.40
68924;DHT22;55961;52.156;20.942;2023-02-28T18:01:26;1.00;57.70
68924;DHT22;55961;52.156;20.942;2023-02-28T18:03:52;0.90;57.80
68924;DHT22;55961;52.156;20.942;2023-02-28T18:06:23;0.90;58.40
68924;DHT22;55961;52.156;20.942;2023-02-28T18:08:51;0.70;58.80
68924;DHT22;55961;52.156;20.942;2023-02-28T18:11:19;0.70;59.60
68924;DHT22;55961;52.156;20.942;2023-02-28T18:13:46;0.60;59.70
68924;DHT22;55961;52.156;20.942;2023-02-28T18:16:14;0.60;59.70